createdAt,value
2022-12-25T00:00:49.483Z,34.30
2022-12-25T00:01:49.407Z,30.00
2022-12-25T00:02:49.526Z,41.10
2022-12-25T00:03:49.516Z,45.80
2022-12-25T00:04:49.392Z,37.50
2022-12-25T00:05:49.359Z,47.10
2022-12-25T00:06:49.342Z,51.00
2022-12-25T00:07:49.348Z,58.60
2022-12-25T00:08:49.335Z,60.90
2022-12-25T00:09:49.306Z,40.40
2022-12-25T00:10:49.329Z,33.50
2022-12-25T00:11:49.313Z,60.30
2022-12-25T00:12:49.248Z,63.30
2022-12-25T00:13:49.229Z,95.90
2022-12-25T00:14:49.220Z,116.50
2022-12-25T00:15:49.257Z,157.70
2022-12-25T00:16:49.291Z,110.00
2022-12-25T00:17:49.184Z,130.10
2022-12-25T00:18:49.190Z,70.70
2022-12-25T00:19:49.193Z,86.20
2022-12-25T00:20:49.207Z,86.30
2022-12-25T00:21:49.136Z,90.70
2022-12-25T00:22:49.144Z,29.90
2022-12-25T00:23:49.137Z,34.80
2022-12-25T00:24:49.097Z,28.90
2022-12-25T00:25:49.127Z,26.40
2022-12-25T00:26:49.133Z,34.00
2022-12-25T00:27:49.057Z,33.40
2022-12-25T00:28:49.061Z,39.10
2022-12-25T00:29:49.103Z,73.70
2022-12-25T00:30:49.015Z,32.00
2022-12-25T00:31:49.059Z,30.60
2022-12-25T00:32:49.020Z,35.40
2022-12-25T00:33:49.034Z,28.50
2022-12-25T00:34:48.966Z,32.70
2022-12-25T00:35:48.974Z,41.90
2022-12-25T00:36:48.950Z,37.40
2022-12-25T00:37:48.934Z,52.30
2022-12-25T00:38:48.903Z,58.90
2022-12-25T00:39:48.956Z,53.30
2022-12-25T00:40:48.876Z,59.00
2022-12-25T00:41:48.867Z,47.50
2022-12-25T00:42:48.885Z,33.90
2022-12-25T00:43:48.838Z,41.40
2022-12-25T00:44:48.830Z,66.70
2022-12-25T00:45:48.918Z,41.40
2022-12-25T00:46:48.869Z,61.10
2022-12-25T00:47:48.824Z,90.70
2022-12-25T00:48:48.798Z,92.80
2022-12-25T00:49:48.794Z,86.80
2022-12-25T00:50:48.744Z,58.60
2022-12-25T00:51:48.755Z,55.00
2022-12-25T00:52:48.756Z,68.40
2022-12-25T00:53:48.720Z,49.50
2022-12-25T00:54:48.700Z,63.20
2022-12-25T00:55:48.743Z,55.50
2022-12-25T00:56:48.715Z,41.10
2022-12-25T00:57:48.696Z,58.80
2022-12-25T00:58:48.656Z,47.20
2022-12-25T00:59:48.676Z,56.60
2022-12-25T01:00:48.651Z,43.00
2022-12-25T01:01:48.756Z,42.60
2022-12-25T01:02:48.736Z,61.00
2022-12-25T01:03:48.587Z,79.30
2022-12-25T01:04:48.582Z,116.70
2022-12-25T01:05:48.607Z,48.90
2022-12-25T01:06:48.574Z,57.20
2022-12-25T01:07:48.577Z,63.80
2022-12-25T01:08:48.530Z,58.30
2022-12-25T01:09:48.536Z,55.90
2022-12-25T01:10:48.501Z,53.30
2022-12-25T01:11:48.511Z,51.90
2022-12-25T01:12:48.488Z,51.20
2022-12-25T01:13:48.449Z,44.90
2022-12-25T01:14:48.474Z,49.50
2022-12-25T01:15:48.476Z,55.60
2022-12-25T01:16:48.456Z,83.10
2022-12-25T01:17:48.418Z,53.90
2022-12-25T01:18:48.381Z,50.00
2022-12-25T01:19:48.398Z,48.40
2022-12-25T01:20:48.356Z,90.20
2022-12-25T01:21:48.382Z,54.80
2022-12-25T01:22:48.340Z,45.50
2022-12-25T01:23:48.365Z,59.40
2022-12-25T01:24:48.384Z,50.70
2022-12-25T01:25:48.315Z,110.30
2022-12-25T01:26:48.309Z,59.50
2022-12-25T01:27:48.303Z,47.80
2022-12-25T01:28:48.270Z,61.10
2022-12-25T01:29:48.284Z,53.40
2022-12-25T01:30:48.228Z,44.20
2022-12-25T01:31:48.275Z,64.20
2022-12-25T01:32:48.234Z,47.00
2022-12-25T01:33:48.245Z,53.50
2022-12-25T01:34:53.744Z,67.70
2022-12-25T01:35:48.179Z,47.50
2022-12-25T01:36:48.180Z,43.80
2022-12-25T01:37:48.187Z,37.50
2022-12-25T01:38:48.180Z,46.90
2022-12-25T01:39:48.172Z,34.80
2022-12-25T01:40:48.131Z,38.70
2022-12-25T01:41:48.096Z,40.00
2022-12-25T01:42:48.126Z,55.10
2022-12-25T01:43:48.089Z,49.10
2022-12-25T01:44:48.063Z,47.60
2022-12-25T01:45:48.110Z,53.40
2022-12-25T01:46:48.040Z,48.00
2022-12-25T01:47:48.047Z,42.10
2022-12-25T01:48:48.019Z,42.60
2022-12-25T01:49:48.051Z,46.30
2022-12-25T01:50:48.026Z,61.60
2022-12-25T01:51:47.969Z,52.40
2022-12-25T01:52:47.949Z,48.30
2022-12-25T01:53:47.973Z,66.00
2022-12-25T01:54:47.952Z,64.40
2022-12-25T01:55:47.951Z,64.00
2022-12-25T01:56:47.915Z,45.20
2022-12-25T01:57:47.915Z,65.20
2022-12-25T01:58:47.884Z,70.40
2022-12-25T01:59:47.888Z,55.50
2022-12-25T02:00:47.912Z,40.50
2022-12-25T02:01:48.002Z,61.90
2022-12-25T02:02:47.921Z,154.10
2022-12-25T02:03:47.884Z,103.20
2022-12-25T02:04:47.790Z,135.00
2022-12-25T02:05:47.809Z,118.80
2022-12-25T02:06:47.784Z,57.10
2022-12-25T02:07:47.790Z,94.90
2022-12-25T02:08:47.756Z,48.00
2022-12-25T02:09:47.765Z,46.30
2022-12-25T02:10:47.745Z,55.30
2022-12-25T02:11:47.735Z,118.50
2022-12-25T02:12:47.707Z,113.70
2022-12-25T02:13:47.721Z,68.20
2022-12-25T02:14:47.671Z,68.90
2022-12-25T02:15:47.668Z,40.80
2022-12-25T02:16:56.642Z,72.40
2022-12-25T02:17:47.658Z,40.70
2022-12-25T02:18:47.642Z,43.70
2022-12-25T02:19:47.632Z,52.30
2022-12-25T02:20:47.610Z,38.20
2022-12-25T02:21:47.601Z,33.50
2022-12-25T02:22:47.577Z,44.20
2022-12-25T02:23:47.934Z,49.60
2022-12-25T02:24:47.565Z,47.70
2022-12-25T02:25:47.534Z,58.10
2022-12-25T02:26:47.520Z,48.20
2022-12-25T02:27:47.606Z,51.40
2022-12-25T02:28:47.603Z,55.00
2022-12-25T02:29:47.492Z,63.90
2022-12-25T02:30:47.455Z,83.10
2022-12-25T02:31:47.508Z,58.00
2022-12-25T02:32:47.441Z,54.80
2022-12-25T02:33:47.444Z,65.10
2022-12-25T02:34:47.397Z,57.80
2022-12-25T02:35:47.429Z,68.50
2022-12-25T02:36:47.372Z,73.60
2022-12-25T02:37:47.367Z,89.70
2022-12-25T02:38:47.379Z,78.50
2022-12-25T02:39:47.355Z,81.30
2022-12-25T02:40:47.338Z,116.10
2022-12-25T02:41:47.329Z,99.10
2022-12-25T02:42:47.338Z,138.40
2022-12-25T02:43:47.302Z,116.60
2022-12-25T02:44:47.265Z,54.90
2022-12-25T02:45:47.359Z,107.50
2022-12-25T02:46:47.278Z,91.10
2022-12-25T02:47:47.239Z,49.20
2022-12-25T02:48:47.252Z,68.20
2022-12-25T02:49:47.255Z,83.40
2022-12-25T02:50:47.211Z,67.20
2022-12-25T02:51:47.195Z,99.20
2022-12-25T02:52:47.157Z,32.20
2022-12-25T02:53:47.198Z,36.40
2022-12-25T02:54:47.182Z,35.50
2022-12-25T02:55:47.189Z,43.20
2022-12-25T02:56:47.170Z,72.90
2022-12-25T02:57:47.133Z,56.10
2022-12-25T02:58:47.142Z,48.80
2022-12-25T02:59:47.096Z,52.30
2022-12-25T03:00:47.130Z,75.10
2022-12-25T03:01:47.181Z,90.20
2022-12-25T03:02:47.043Z,94.50
2022-12-25T03:03:47.139Z,95.50
2022-12-25T03:04:47.034Z,92.20
2022-12-25T03:05:47.059Z,131.00
2022-12-25T03:06:47.028Z,104.30
2022-12-25T03:07:46.992Z,90.90
2022-12-25T03:08:47.000Z,45.80
2022-12-25T03:09:46.953Z,47.00
2022-12-25T03:10:47.022Z,47.50
2022-12-25T03:11:46.958Z,37.50
2022-12-25T03:12:46.912Z,42.80
2022-12-25T03:13:46.908Z,48.80
2022-12-25T03:14:46.884Z,35.20
2022-12-25T03:15:46.884Z,36.70
2022-12-25T03:16:47.029Z,34.50
2022-12-25T03:17:46.884Z,40.90
2022-12-25T03:18:46.859Z,47.40
2022-12-25T03:19:46.843Z,47.90
2022-12-25T03:20:46.884Z,70.10
2022-12-25T03:21:46.832Z,68.00
2022-12-25T03:22:46.816Z,43.10
2022-12-25T03:23:46.825Z,56.70
2022-12-25T03:24:46.757Z,166.40
2022-12-25T03:25:46.771Z,86.20
2022-12-25T03:26:46.802Z,91.40
2022-12-25T03:27:46.723Z,128.10
2022-12-25T03:28:46.723Z,146.80
2022-12-25T03:29:46.729Z,194.90
2022-12-25T03:30:46.748Z,152.30
2022-12-25T03:31:46.696Z,175.00
2022-12-25T03:32:46.661Z,180.40
2022-12-25T03:33:46.740Z,192.90
2022-12-25T03:34:46.668Z,204.30
2022-12-25T03:35:46.623Z,113.80
2022-12-25T03:36:46.637Z,192.60
2022-12-25T03:37:46.592Z,202.90
2022-12-25T03:38:46.638Z,224.80
2022-12-25T03:39:46.593Z,167.30
2022-12-25T03:40:46.564Z,135.50
2022-12-25T03:41:46.572Z,102.90
2022-12-25T03:42:46.534Z,220.90
2022-12-25T03:43:46.551Z,136.00
2022-12-25T03:44:46.521Z,297.90
2022-12-25T03:45:46.570Z,263.00
2022-12-25T03:46:46.502Z,244.40
2022-12-25T03:47:46.520Z,214.40
2022-12-25T03:48:46.492Z,208.70
2022-12-25T03:49:46.454Z,125.50
2022-12-25T03:50:46.454Z,132.90
2022-12-25T03:51:46.415Z,112.80
2022-12-25T03:52:46.433Z,110.10
2022-12-25T03:53:46.400Z,59.10
2022-12-25T03:54:46.396Z,60.40
2022-12-25T03:55:46.385Z,86.80
2022-12-25T03:56:46.380Z,78.60
2022-12-25T03:57:46.360Z,98.50
2022-12-25T03:58:46.343Z,56.90
2022-12-25T03:59:46.365Z,86.40
2022-12-25T04:00:46.344Z,188.80
2022-12-25T04:01:46.390Z,237.40
2022-12-25T04:02:46.363Z,278.90
2022-12-25T04:03:46.393Z,168.10
2022-12-25T04:04:46.263Z,94.60
2022-12-25T04:05:46.283Z,161.50
2022-12-25T04:06:46.221Z,132.10
2022-12-25T04:07:46.256Z,128.50
2022-12-25T04:08:46.252Z,82.50
2022-12-25T04:09:46.175Z,104.30
2022-12-25T04:10:46.197Z,57.20
2022-12-25T04:11:46.182Z,78.30
2022-12-25T04:12:46.185Z,89.70
2022-12-25T04:13:46.146Z,135.20
2022-12-25T04:14:46.172Z,152.10
2022-12-25T04:15:46.202Z,143.20
2022-12-25T04:16:46.135Z,77.00
2022-12-25T04:17:46.124Z,58.40
2022-12-25T04:18:46.123Z,123.80
2022-12-25T04:19:46.086Z,235.20
2022-12-25T04:20:46.100Z,314.20
2022-12-25T04:21:46.074Z,184.50
2022-12-25T04:22:46.089Z,114.50
2022-12-25T04:23:46.006Z,76.70
2022-12-25T04:24:46.007Z,66.90
2022-12-25T04:25:46.008Z,68.50
2022-12-25T04:26:45.984Z,98.70
2022-12-25T04:27:46.003Z,85.30
2022-12-25T04:28:45.947Z,77.60
2022-12-25T04:29:46.023Z,72.90
2022-12-25T04:30:45.992Z,191.20
2022-12-25T04:31:45.897Z,269.80
2022-12-25T04:32:45.922Z,188.40
2022-12-25T04:33:45.924Z,111.50
2022-12-25T04:34:45.868Z,202.60
2022-12-25T04:35:45.891Z,263.50
2022-12-25T04:36:45.860Z,206.90
2022-12-25T04:37:45.829Z,318.00
2022-12-25T04:38:45.860Z,246.50
2022-12-25T04:39:45.869Z,168.80
2022-12-25T04:40:45.828Z,189.00
2022-12-25T04:41:45.823Z,223.20
2022-12-25T04:42:45.829Z,243.40
2022-12-25T04:43:45.795Z,106.80
2022-12-25T04:44:45.780Z,241.90
2022-12-25T04:45:45.756Z,191.00
2022-12-25T04:46:45.828Z,183.20
2022-12-25T04:47:45.749Z,140.50
2022-12-25T04:48:45.715Z,131.20
2022-12-25T04:49:45.698Z,101.90
2022-12-25T04:50:45.682Z,88.10
2022-12-25T04:51:45.703Z,73.50
2022-12-25T04:52:45.708Z,69.20
2022-12-25T04:53:45.667Z,84.30
2022-12-25T04:54:45.623Z,69.50
2022-12-25T04:55:45.624Z,56.20
2022-12-25T04:56:46.165Z,94.30
2022-12-25T04:57:45.654Z,105.10
2022-12-25T04:58:45.569Z,85.00
2022-12-25T04:59:45.567Z,65.70
2022-12-25T05:00:45.567Z,64.80
2022-12-25T05:01:45.602Z,92.50
2022-12-25T05:02:45.778Z,138.80
2022-12-25T05:03:45.629Z,240.10
2022-12-25T05:04:45.520Z,268.90
2022-12-25T05:05:45.483Z,177.60
2022-12-25T05:06:45.480Z,148.80
2022-12-25T05:07:45.453Z,143.60
2022-12-25T05:08:45.489Z,200.00
2022-12-25T05:09:45.461Z,220.20
2022-12-25T05:10:45.421Z,217.40
2022-12-25T05:11:45.420Z,117.50
2022-12-25T05:12:45.452Z,110.70
2022-12-25T05:13:45.422Z,70.30
2022-12-25T05:14:45.415Z,114.30
2022-12-25T05:15:45.442Z,168.40
2022-12-25T05:16:45.425Z,125.30
2022-12-25T05:17:45.379Z,93.60
2022-12-25T05:18:45.426Z,92.70
2022-12-25T05:19:45.307Z,134.60
2022-12-25T05:20:45.343Z,119.90
2022-12-25T05:21:45.330Z,139.20
2022-12-25T05:22:45.309Z,169.10
2022-12-25T05:23:45.244Z,112.10
2022-12-25T05:24:45.244Z,164.90
2022-12-25T05:25:45.233Z,133.90
2022-12-25T05:26:45.238Z,164.20
2022-12-25T05:27:48.796Z,140.40
2022-12-25T05:28:45.198Z,144.40
2022-12-25T05:29:45.223Z,188.40
2022-12-25T05:30:45.229Z,149.80
2022-12-25T05:31:45.252Z,194.60
2022-12-25T05:32:45.182Z,137.40
2022-12-25T05:33:45.137Z,133.30
2022-12-25T05:34:45.153Z,165.90
2022-12-25T05:35:45.145Z,117.30
2022-12-25T05:36:45.164Z,136.60
2022-12-25T05:37:45.081Z,155.30
2022-12-25T05:38:45.081Z,144.10
2022-12-25T05:39:45.037Z,188.30
2022-12-25T05:40:45.055Z,247.90
2022-12-25T05:41:45.023Z,215.60
2022-12-25T05:42:45.015Z,218.60
2022-12-25T05:43:45.005Z,226.50
2022-12-25T05:44:45.015Z,211.20
2022-12-25T05:45:44.962Z,156.00
2022-12-25T05:46:45.055Z,238.10
2022-12-25T05:47:44.980Z,214.80
2022-12-25T05:48:44.966Z,199.20
2022-12-25T05:49:44.958Z,181.00
2022-12-25T05:50:44.924Z,144.00
2022-12-25T05:51:44.902Z,168.10
2022-12-25T05:52:44.879Z,160.70
2022-12-25T05:53:44.902Z,178.30
2022-12-25T05:54:44.856Z,75.60
2022-12-25T05:55:44.847Z,232.30
2022-12-25T05:56:44.835Z,186.50
2022-12-25T05:57:44.862Z,172.00
2022-12-25T05:58:44.813Z,217.50
2022-12-25T05:59:44.800Z,206.10
2022-12-25T06:00:44.805Z,187.20
2022-12-25T06:01:44.925Z,200.20
2022-12-25T06:02:44.948Z,207.50
2022-12-25T06:03:44.857Z,118.40
2022-12-25T06:04:44.753Z,113.60
2022-12-25T06:05:44.744Z,104.50
2022-12-25T06:06:44.716Z,89.80
2022-12-25T06:07:44.704Z,97.90
2022-12-25T06:08:44.691Z,196.30
2022-12-25T06:09:44.678Z,181.70
2022-12-25T06:10:44.695Z,232.10
2022-12-25T06:11:44.640Z,196.50
2022-12-25T06:12:44.647Z,255.10
2022-12-25T06:13:44.639Z,215.00
2022-12-25T06:14:44.629Z,246.60
2022-12-25T06:15:44.614Z,246.30
2022-12-25T06:16:44.651Z,196.30
2022-12-25T06:17:44.580Z,151.20
2022-12-25T06:18:44.559Z,180.60
2022-12-25T06:19:44.560Z,184.50
2022-12-25T06:20:44.545Z,195.00
2022-12-25T06:21:44.547Z,173.20
2022-12-25T06:22:44.503Z,203.80
2022-12-25T06:23:44.597Z,170.20
2022-12-25T06:24:44.479Z,178.00
2022-12-25T06:25:44.474Z,143.10
2022-12-25T06:26:44.453Z,178.40
2022-12-25T06:27:44.448Z,177.30
2022-12-25T06:28:44.431Z,141.90
2022-12-25T06:29:44.432Z,141.70
2022-12-25T06:30:44.557Z,122.90
2022-12-25T06:31:44.435Z,159.90
2022-12-25T06:32:44.424Z,92.50
2022-12-25T06:33:44.363Z,96.20
2022-12-25T06:34:44.993Z,147.10
2022-12-25T06:35:44.354Z,122.10
2022-12-25T06:36:44.372Z,90.50
2022-12-25T06:37:44.358Z,111.10
2022-12-25T06:38:44.307Z,182.90
2022-12-25T06:39:44.287Z,136.70
2022-12-25T06:40:44.315Z,96.60
2022-12-25T06:41:44.273Z,140.00
2022-12-25T06:42:44.292Z,125.90
2022-12-25T06:43:44.302Z,198.90
2022-12-25T06:44:44.250Z,181.50
2022-12-25T06:45:44.227Z,112.40
2022-12-25T06:46:44.215Z,101.60
2022-12-25T06:47:44.199Z,107.00
2022-12-25T06:48:44.201Z,180.50
2022-12-25T06:49:44.167Z,185.20
2022-12-25T06:50:44.162Z,243.40
2022-12-25T06:51:44.176Z,142.00
2022-12-25T06:52:44.154Z,144.50
2022-12-25T06:53:44.140Z,158.80
2022-12-25T06:54:44.118Z,139.30
2022-12-25T06:55:44.090Z,196.70
2022-12-25T06:56:44.123Z,187.30
2022-12-25T06:57:44.076Z,151.20
2022-12-25T06:58:44.114Z,114.30
2022-12-25T06:59:46.383Z,180.40
2022-12-25T07:00:44.063Z,112.30
2022-12-25T07:01:44.256Z,107.80
2022-12-25T07:02:44.240Z,117.50
2022-12-25T07:03:44.005Z,99.00
2022-12-25T07:04:44.000Z,116.20
2022-12-25T07:05:43.993Z,106.80
2022-12-25T07:06:43.958Z,96.40
2022-12-25T07:07:43.949Z,110.70
2022-12-25T07:08:43.958Z,109.20
2022-12-25T07:09:43.920Z,114.80
2022-12-25T07:10:43.923Z,131.10
2022-12-25T07:11:43.883Z,98.90
2022-12-25T07:12:43.916Z,90.30
2022-12-25T07:13:43.888Z,85.40
2022-12-25T07:14:43.885Z,82.90
2022-12-25T07:15:43.869Z,107.30
2022-12-25T07:16:43.901Z,141.70
2022-12-25T07:17:43.812Z,101.60
2022-12-25T07:18:43.823Z,109.10
2022-12-25T07:19:45.446Z,84.40
2022-12-25T07:20:43.797Z,87.20
2022-12-25T07:21:43.790Z,114.70
2022-12-25T07:22:43.776Z,94.30
2022-12-25T07:23:43.744Z,89.20
2022-12-25T07:24:43.727Z,97.30
2022-12-25T07:25:43.804Z,100.00
2022-12-25T07:26:43.717Z,149.60
2022-12-25T07:27:43.704Z,74.90
2022-12-25T07:28:43.723Z,125.20
2022-12-25T07:29:43.672Z,127.50
2022-12-25T07:30:43.666Z,157.80
2022-12-25T07:31:43.709Z,188.70
2022-12-25T07:32:49.854Z,111.00
2022-12-25T07:33:43.669Z,112.50
2022-12-25T07:34:43.601Z,96.20
2022-12-25T07:35:43.848Z,116.60
2022-12-25T07:36:43.590Z,98.10
2022-12-25T07:37:43.590Z,117.70
2022-12-25T07:38:43.626Z,145.90
2022-12-25T07:39:43.558Z,162.10
2022-12-25T07:40:43.527Z,172.20
2022-12-25T07:41:43.600Z,174.70
2022-12-25T07:42:43.552Z,168.90
2022-12-25T07:43:43.576Z,168.30
2022-12-25T07:44:43.503Z,239.10
2022-12-25T07:45:43.546Z,275.50
2022-12-25T07:46:43.527Z,369.70
2022-12-25T07:47:43.460Z,180.70
2022-12-25T07:48:43.445Z,235.70
2022-12-25T07:49:43.428Z,289.00
2022-12-25T07:50:43.403Z,239.10
2022-12-25T07:51:43.383Z,272.70
2022-12-25T07:52:44.019Z,252.00
2022-12-25T07:53:43.390Z,295.60
2022-12-25T07:54:43.400Z,300.00
2022-12-25T07:55:43.361Z,185.70
2022-12-25T07:56:43.342Z,238.60
2022-12-25T07:57:43.374Z,213.50
2022-12-25T07:58:43.322Z,194.30
2022-12-25T07:59:43.323Z,193.40
2022-12-25T08:00:43.330Z,194.70
2022-12-25T08:01:43.459Z,203.80
2022-12-25T08:02:43.560Z,222.60
2022-12-25T08:03:43.317Z,129.10
2022-12-25T08:04:43.285Z,138.30
2022-12-25T08:05:43.236Z,148.20
2022-12-25T08:06:43.201Z,148.60
2022-12-25T08:07:43.209Z,141.10
2022-12-25T08:08:43.208Z,166.30
2022-12-25T08:09:43.191Z,136.90
2022-12-25T08:10:43.176Z,141.50
2022-12-25T08:11:43.139Z,134.60
2022-12-25T08:12:43.164Z,91.60
2022-12-25T08:13:43.130Z,121.00
2022-12-25T08:14:43.117Z,143.50
2022-12-25T08:15:43.149Z,128.10
2022-12-25T08:16:43.179Z,159.90
2022-12-25T08:17:43.068Z,169.40
2022-12-25T08:18:43.057Z,153.00
2022-12-25T08:19:43.021Z,198.70
2022-12-25T08:20:43.850Z,137.20
2022-12-25T08:21:43.011Z,165.40
2022-12-25T08:22:43.051Z,163.40
2022-12-25T08:23:43.011Z,191.50
2022-12-25T08:24:43.043Z,140.60
2022-12-25T08:25:42.987Z,114.40
2022-12-25T08:26:42.973Z,155.20
2022-12-25T08:27:42.936Z,112.30
2022-12-25T08:28:42.920Z,162.20
2022-12-25T08:29:42.955Z,174.60
2022-12-25T08:30:42.975Z,180.10
2022-12-25T08:31:46.537Z,149.10
2022-12-25T08:32:42.866Z,178.20
2022-12-25T08:33:42.880Z,190.50
2022-12-25T08:34:42.823Z,195.70
2022-12-25T08:35:42.830Z,194.30
2022-12-25T08:36:42.876Z,190.80
2022-12-25T08:37:42.805Z,167.20
2022-12-25T08:38:42.854Z,202.00
2022-12-25T08:39:42.813Z,300.10
2022-12-25T08:40:42.780Z,263.00
2022-12-25T08:41:42.784Z,289.60
2022-12-25T08:42:42.747Z,172.50
2022-12-25T08:43:42.732Z,225.60
2022-12-25T08:44:42.710Z,109.70
2022-12-25T08:45:42.743Z,132.90
2022-12-25T08:46:42.745Z,121.30
2022-12-25T08:47:42.734Z,139.80
2022-12-25T08:48:42.652Z,164.60
2022-12-25T08:49:42.688Z,184.60
2022-12-25T08:50:42.669Z,151.80
2022-12-25T08:51:42.683Z,145.60
2022-12-25T08:52:42.619Z,153.70
2022-12-25T08:53:42.647Z,183.50
2022-12-25T08:54:42.604Z,208.90
2022-12-25T08:55:42.608Z,133.70
2022-12-25T08:56:42.555Z,200.50
2022-12-25T08:57:42.582Z,171.20
2022-12-25T08:58:42.528Z,115.90
2022-12-25T08:59:42.558Z,113.20
2022-12-25T09:00:42.509Z,187.20
2022-12-25T09:01:42.548Z,137.20
2022-12-25T09:02:42.595Z,163.50
2022-12-25T09:03:42.528Z,96.30
2022-12-25T09:04:42.451Z,88.80
2022-12-25T09:05:42.447Z,113.40
2022-12-25T09:06:42.467Z,170.40
2022-12-25T09:07:42.432Z,189.80
2022-12-25T09:08:48.092Z,151.40
2022-12-25T09:09:42.397Z,148.50
2022-12-25T09:10:42.362Z,124.50
2022-12-25T09:11:42.345Z,113.00
2022-12-25T09:12:42.372Z,161.50
2022-12-25T09:13:42.339Z,123.40
2022-12-25T09:14:42.316Z,122.20
2022-12-25T09:15:42.361Z,109.10
2022-12-25T09:16:42.286Z,133.30
2022-12-25T09:17:42.310Z,123.60
2022-12-25T09:18:42.290Z,104.00
2022-12-25T09:19:42.288Z,95.90
2022-12-25T09:20:42.246Z,83.50
2022-12-25T09:21:42.228Z,82.10
2022-12-25T09:22:42.209Z,73.80
2022-12-25T09:23:42.263Z,96.00
2022-12-25T09:24:42.187Z,79.50
2022-12-25T09:25:42.195Z,72.10
2022-12-25T09:26:42.158Z,74.80
2022-12-25T09:27:42.173Z,86.20
2022-12-25T09:28:48.532Z,77.90
2022-12-25T09:29:42.162Z,62.60
2022-12-25T09:30:42.142Z,80.40
2022-12-25T09:31:42.186Z,76.70
2022-12-25T09:32:42.120Z,70.60
2022-12-25T09:33:42.112Z,81.90
2022-12-25T09:34:43.058Z,89.80
2022-12-25T09:35:42.057Z,78.00
2022-12-25T09:36:42.021Z,84.00
2022-12-25T09:37:42.060Z,76.00
2022-12-25T09:38:41.991Z,124.90
2022-12-25T09:39:46.419Z,102.00
2022-12-25T09:40:42.040Z,54.50
2022-12-25T09:41:42.030Z,70.90
2022-12-25T09:42:41.939Z,123.30
2022-12-25T09:43:42.004Z,75.30
2022-12-25T09:44:41.947Z,88.20
2022-12-25T09:45:41.921Z,75.40
2022-12-25T09:46:41.960Z,76.70
2022-12-25T09:47:41.903Z,68.90
2022-12-25T09:48:41.889Z,79.60
2022-12-25T09:49:41.874Z,98.80
2022-12-25T09:50:41.854Z,109.20
2022-12-25T09:51:41.871Z,128.80
2022-12-25T09:52:41.843Z,118.10
2022-12-25T09:53:41.796Z,89.50
2022-12-25T09:54:41.811Z,93.10
2022-12-25T09:55:41.798Z,102.20
2022-12-25T09:56:41.783Z,123.90
2022-12-25T09:57:41.780Z,82.60
2022-12-25T09:58:41.745Z,112.80
2022-12-25T09:59:41.751Z,144.30
2022-12-25T10:00:41.776Z,157.00
2022-12-25T10:01:41.820Z,160.50
2022-12-25T10:02:41.857Z,170.40
2022-12-25T10:03:41.830Z,184.80
2022-12-25T10:04:41.662Z,169.70
2022-12-25T10:05:41.641Z,154.70
2022-12-25T10:06:41.626Z,207.90
2022-12-25T10:07:41.663Z,190.40
2022-12-25T10:08:41.628Z,287.30
2022-12-25T10:09:41.621Z,186.20
2022-12-25T10:10:41.607Z,213.70
2022-12-25T10:11:41.564Z,262.60
2022-12-25T10:12:41.566Z,238.30
2022-12-25T10:13:41.578Z,203.70
2022-12-25T10:14:41.563Z,243.60
2022-12-25T10:15:45.423Z,188.10
2022-12-25T10:16:41.547Z,240.80
2022-12-25T10:17:41.535Z,246.90
2022-12-25T10:18:41.520Z,182.90
2022-12-25T10:19:41.548Z,149.90
2022-12-25T10:20:41.495Z,153.90
2022-12-25T10:21:41.468Z,243.70
2022-12-25T10:22:41.421Z,172.40
2022-12-25T10:23:41.434Z,182.80
2022-12-25T10:24:41.409Z,168.00
2022-12-25T10:25:41.403Z,158.20
2022-12-25T10:26:41.408Z,181.10
2022-12-25T10:27:41.368Z,196.10
2022-12-25T10:28:41.378Z,123.20
2022-12-25T10:29:41.357Z,99.50
2022-12-25T10:30:41.430Z,109.10
2022-12-25T10:31:41.386Z,98.70
2022-12-25T10:32:41.285Z,85.90
2022-12-25T10:33:41.327Z,175.80
2022-12-25T10:34:41.318Z,111.30
2022-12-25T10:35:41.252Z,113.40
2022-12-25T10:36:41.265Z,76.60
2022-12-25T10:37:41.244Z,170.50
2022-12-25T10:38:41.241Z,308.40
2022-12-25T10:39:46.402Z,50.70
2022-12-25T10:40:41.250Z,56.40
2022-12-25T10:41:41.205Z,122.60
2022-12-25T10:42:41.237Z,120.60
2022-12-25T10:43:41.179Z,105.90
2022-12-25T10:44:41.200Z,106.10
2022-12-25T10:45:41.192Z,94.40
2022-12-25T10:46:41.177Z,77.80
2022-12-25T10:47:42.180Z,99.40
2022-12-25T10:48:41.102Z,59.10
2022-12-25T10:49:41.101Z,85.80
2022-12-25T10:50:41.065Z,83.90
2022-12-25T10:51:41.045Z,106.70
2022-12-25T10:52:41.049Z,48.80
2022-12-25T10:53:41.072Z,68.10
2022-12-25T10:54:41.030Z,60.80
2022-12-25T10:55:40.989Z,87.70
2022-12-25T10:56:41.002Z,210.70
2022-12-25T10:57:40.977Z,68.60
2022-12-25T10:58:40.967Z,89.80
2022-12-25T10:59:40.976Z,77.40
2022-12-25T11:00:40.928Z,70.50
2022-12-25T11:01:41.025Z,61.50
2022-12-25T11:02:41.365Z,56.20
2022-12-25T11:03:40.945Z,62.90
2022-12-25T11:04:40.878Z,73.70
2022-12-25T11:05:40.881Z,92.50
2022-12-25T11:06:40.855Z,91.10
2022-12-25T11:07:40.856Z,61.30
2022-12-25T11:08:40.812Z,69.90
2022-12-25T11:09:40.847Z,58.30
2022-12-25T11:10:40.829Z,73.20
2022-12-25T11:11:40.776Z,59.70
2022-12-25T11:12:40.792Z,56.30
2022-12-25T11:13:40.775Z,73.30
2022-12-25T11:14:40.764Z,62.10
2022-12-25T11:15:40.867Z,72.00
2022-12-25T11:16:40.796Z,66.30
2022-12-25T11:17:40.739Z,81.50
2022-12-25T11:18:40.759Z,51.30
2022-12-25T11:19:40.691Z,76.30
2022-12-25T11:20:45.446Z,67.80
2022-12-25T11:21:40.672Z,64.30
2022-12-25T11:22:40.676Z,61.40
2022-12-25T11:23:40.664Z,62.00
2022-12-25T11:24:40.649Z,70.90
2022-12-25T11:25:40.623Z,55.40
2022-12-25T11:26:40.629Z,56.00
2022-12-25T11:27:40.613Z,65.20
2022-12-25T11:28:40.602Z,47.80
2022-12-25T11:29:40.575Z,57.20
2022-12-25T11:30:40.572Z,50.40
2022-12-25T11:31:40.602Z,45.30
2022-12-25T11:32:40.573Z,45.10
2022-12-25T11:33:40.555Z,46.60
2022-12-25T11:34:40.481Z,55.00
2022-12-25T11:35:40.483Z,47.50
2022-12-25T11:36:40.501Z,45.80
2022-12-25T11:37:40.458Z,52.20
2022-12-25T11:38:40.446Z,51.70
2022-12-25T11:39:40.445Z,53.30
2022-12-25T11:40:40.438Z,56.80
2022-12-25T11:41:40.402Z,51.30
2022-12-25T11:42:40.400Z,54.70
2022-12-25T11:43:40.373Z,50.30
2022-12-25T11:44:40.402Z,45.20
2022-12-25T11:45:40.367Z,39.20
2022-12-25T11:46:40.354Z,45.40
2022-12-25T11:47:40.304Z,47.60
2022-12-25T11:48:40.311Z,36.30
2022-12-25T11:49:41.850Z,40.60
2022-12-25T11:50:40.328Z,42.00
2022-12-25T11:51:40.264Z,37.40
2022-12-25T11:52:40.327Z,44.00
2022-12-25T11:53:40.258Z,53.20
2022-12-25T11:54:40.266Z,37.70
2022-12-25T11:55:40.215Z,35.90
2022-12-25T11:56:40.214Z,35.10
2022-12-25T11:57:40.224Z,35.70
2022-12-25T11:58:40.227Z,34.50
2022-12-25T11:59:40.160Z,32.10
2022-12-25T12:00:40.164Z,35.70
2022-12-25T12:01:40.342Z,34.50
2022-12-25T12:02:40.414Z,31.60
2022-12-25T12:03:40.138Z,33.40
2022-12-25T12:04:43.045Z,30.80
2022-12-25T12:05:40.126Z,34.80
2022-12-25T12:06:40.072Z,27.70
2022-12-25T12:07:40.082Z,30.30
2022-12-25T12:08:40.138Z,25.60
2022-12-25T12:09:40.069Z,36.00
2022-12-25T12:10:40.105Z,38.50
2022-12-25T12:11:39.991Z,30.40
2022-12-25T12:12:46.671Z,36.70
2022-12-25T12:13:40.000Z,32.00
2022-12-25T12:14:39.990Z,29.30
2022-12-25T12:15:40.014Z,27.20
2022-12-25T12:16:40.041Z,27.90
2022-12-25T12:17:39.953Z,27.70
2022-12-25T12:18:42.683Z,29.60
2022-12-25T12:19:39.913Z,31.50
2022-12-25T12:20:39.935Z,25.50
2022-12-25T12:21:39.929Z,26.80
2022-12-25T12:22:39.886Z,24.60
2022-12-25T12:23:39.905Z,29.50
2022-12-25T12:24:39.868Z,24.80
2022-12-25T12:25:39.841Z,28.20
2022-12-25T12:26:39.808Z,27.00
2022-12-25T12:27:39.795Z,26.20
2022-12-25T12:28:39.796Z,25.50
2022-12-25T12:29:39.776Z,23.80
2022-12-25T12:30:39.783Z,22.90
2022-12-25T12:31:39.789Z,24.80
2022-12-25T12:32:39.785Z,23.60
2022-12-25T12:33:39.744Z,24.30
2022-12-25T12:34:39.859Z,23.80
2022-12-25T12:35:39.725Z,24.00
2022-12-25T12:36:39.703Z,31.80
2022-12-25T12:37:39.729Z,23.60
2022-12-25T12:38:39.663Z,23.00
2022-12-25T12:39:39.631Z,25.70
2022-12-25T12:40:39.631Z,23.00